createdAt,value
2023-11-12T00:00:40.720Z,0.1
2023-11-12T00:01:53.188Z,0
2023-11-12T00:02:58.007Z,0
2023-11-12T00:04:06.702Z,0
2023-11-12T00:05:11.558Z,0.26
2023-11-12T00:06:24.098Z,0.44
2023-11-12T00:07:36.644Z,0.12
2023-11-12T00:08:41.516Z,0
2023-11-12T00:09:54.069Z,0.14
2023-11-12T00:11:11.544Z,0.03
2023-11-12T00:12:34.692Z,0.26
2023-11-12T00:13:47.411Z,0.13
2023-11-12T00:14:59.855Z,0
2023-11-12T00:16:04.851Z,0.05
2023-11-12T00:17:13.388Z,0.13
2023-11-12T00:18:29.141Z,0
2023-11-12T00:19:29.855Z,0
2023-11-12T00:20:31.172Z,0.06
2023-11-12T00:21:43.736Z,0.06
2023-11-12T00:22:52.235Z,0.46
2023-11-12T00:24:05.046Z,0.15
2023-11-12T00:25:24.178Z,0.05
2023-11-12T00:26:29.033Z,0.14
2023-11-12T00:27:37.693Z,0.13
2023-11-12T00:28:42.544Z,0.12
2023-11-12T00:29:51.245Z,0.18
2023-11-12T00:31:03.796Z,0.11
2023-11-12T00:32:16.483Z,0.13
2023-11-12T00:33:34.749Z,0.08
2023-11-12T00:34:51.482Z,0.25
2023-11-12T00:36:12.402Z,0.14
2023-11-12T00:37:21.117Z,0.1
2023-11-12T00:38:41.354Z,0.05
2023-11-12T00:39:46.194Z,0.79
2023-11-12T00:40:47.222Z,0
2023-11-12T00:42:03.639Z,0.06
2023-11-12T00:43:16.495Z,0.11
2023-11-12T00:44:28.837Z,0.34
2023-11-12T00:45:37.418Z,0
2023-11-12T00:46:50.000Z,0.21
2023-11-12T00:47:54.833Z,0
2023-11-12T00:49:07.388Z,0.09
2023-11-12T00:50:12.308Z,0.13
2023-11-12T00:51:30.611Z,0
2023-11-12T00:53:02.382Z,0
2023-11-12T00:54:10.959Z,0
2023-11-12T00:55:38.826Z,0.14
2023-11-12T00:56:47.527Z,0.91
2023-11-12T00:57:52.402Z,0
2023-11-12T00:58:57.435Z,0
2023-11-12T01:00:09.825Z,0.07
2023-11-12T01:01:18.675Z,0
2023-11-12T01:02:19.583Z,0
2023-11-12T01:03:28.318Z,0.41
2023-11-12T01:04:36.899Z,0
2023-11-12T01:05:49.445Z,0
2023-11-12T01:06:58.173Z,0
2023-11-12T01:08:10.896Z,0.29
2023-11-12T01:09:15.703Z,0
2023-11-12T01:10:28.238Z,0.13
2023-11-12T01:11:40.684Z,0.25
2023-11-12T01:12:49.378Z,0
2023-11-12T01:14:06.798Z,0
2023-11-12T01:15:12.616Z,0.17
2023-11-12T01:16:22.351Z,0.14
2023-11-12T01:17:38.893Z,0.14
2023-11-12T01:18:55.123Z,0.09
2023-11-12T01:20:07.734Z,0.13
2023-11-12T01:21:20.292Z,0.79
2023-11-12T01:22:32.863Z,0
2023-11-12T01:23:37.710Z,0.28
2023-11-12T01:24:54.083Z,0.13
2023-11-12T01:26:06.619Z,0.39
2023-11-12T01:27:11.529Z,0.39
2023-11-12T01:28:16.295Z,0
2023-11-12T01:29:25.134Z,0.36
2023-11-12T01:30:33.799Z,0.37
2023-11-12T01:31:42.559Z,0.3
2023-11-12T01:32:58.876Z,0.25
2023-11-12T01:34:11.390Z,0.16
2023-11-12T01:35:20.142Z,0.13
2023-11-12T01:36:26.160Z,0.15
2023-11-12T01:37:30.898Z,0.05
2023-11-12T01:38:39.579Z,0.12
2023-11-12T01:39:40.460Z,0.33
2023-11-12T01:40:53.043Z,0.25
2023-11-12T01:42:13.245Z,0.08
2023-11-12T01:43:25.652Z,0.07
2023-11-12T01:44:39.996Z,0.21
2023-11-12T01:45:50.763Z,0.06
2023-11-12T01:47:11.013Z,0.17
2023-11-12T01:48:22.049Z,0.09
2023-11-12T01:51:21.282Z,0
2023-11-12T01:52:26.286Z,0
2023-11-12T01:53:30.956Z,0.27
2023-11-12T01:54:47.863Z,0.34
2023-11-12T01:55:56.996Z,0
2023-11-12T01:57:17.362Z,0.13
2023-11-12T01:58:29.935Z,0.47
2023-11-12T01:59:42.471Z,0.18
2023-11-12T02:01:02.711Z,0.11
2023-11-12T02:02:11.362Z,0.18
2023-11-12T02:03:20.713Z,0.18
2023-11-12T02:04:26.130Z,0.2
2023-11-12T02:05:46.170Z,0.15
2023-11-12T02:07:02.615Z,0.06
2023-11-12T02:08:15.064Z,0.19
2023-11-12T02:09:23.903Z,0
2023-11-12T02:10:36.501Z,0.47
2023-11-12T02:11:45.112Z,0.2
2023-11-12T02:13:01.510Z,0.22
2023-11-12T02:14:14.390Z,0
2023-11-12T02:15:27.705Z,0.14
2023-11-12T02:16:36.424Z,0
2023-11-12T02:17:52.717Z,0.3
2023-11-12T02:19:02.376Z,0.05
2023-11-12T02:20:26.686Z,0.31
2023-11-12T02:21:45.199Z,0.16
2023-11-12T02:22:49.849Z,0.1
2023-11-12T02:24:02.517Z,0
2023-11-12T02:25:15.993Z,0.23
2023-11-12T02:26:32.535Z,0.07
2023-11-12T02:27:52.649Z,0.07
2023-11-12T02:29:05.307Z,0
2023-11-12T02:30:11.383Z,0.1
2023-11-12T02:31:19.787Z,0
2023-11-12T02:32:39.245Z,0
2023-11-12T02:36:00.142Z,0
2023-11-12T02:37:07.821Z,0
2023-11-12T02:38:15.815Z,0
2023-11-12T02:39:24.731Z,0
2023-11-12T02:40:40.884Z,0.14
2023-11-12T02:41:49.596Z,0
2023-11-12T02:43:02.085Z,0
2023-11-12T02:44:14.687Z,0
2023-11-12T02:45:23.639Z,0
2023-11-12T02:46:32.115Z,0
2023-11-12T02:47:33.066Z,0
2023-11-12T02:48:49.195Z,0
2023-11-12T02:50:07.458Z,0.05
2023-11-12T02:51:16.278Z,0
2023-11-12T02:52:28.745Z,0
2023-11-12T02:53:41.323Z,0
2023-11-12T02:54:42.285Z,0
2023-11-12T02:55:56.897Z,0
2023-11-12T02:57:05.677Z,0
2023-11-12T02:58:20.117Z,0
2023-11-12T02:59:33.710Z,0
2023-11-12T03:00:38.776Z,0
2023-11-12T03:01:53.101Z,0
2023-11-12T03:03:11.573Z,0
2023-11-12T03:04:16.481Z,0
2023-11-12T03:05:17.321Z,0
2023-11-12T03:06:30.016Z,0
2023-11-12T03:07:42.578Z,0
2023-11-12T03:08:55.106Z,0
2023-11-12T03:10:06.835Z,0
2023-11-12T03:11:07.786Z,0
2023-11-12T03:12:16.893Z,0
2023-11-12T03:13:25.384Z,0
2023-11-12T03:14:45.585Z,0
2023-11-12T03:15:58.034Z,0
2023-11-12T03:17:10.581Z,0
2023-11-12T03:18:15.469Z,0
2023-11-12T03:19:31.851Z,0
2023-11-12T03:20:40.522Z,0
2023-11-12T03:21:53.096Z,0
2023-11-12T03:23:01.801Z,0
2023-11-12T03:24:15.363Z,0
2023-11-12T03:25:24.064Z,0
2023-11-12T03:26:36.608Z,0
2023-11-12T03:27:53.083Z,0
2023-11-12T03:29:09.419Z,0
2023-11-12T03:30:18.166Z,0
2023-11-12T03:31:26.865Z,0
2023-11-12T03:32:47.401Z,0
2023-11-12T03:33:59.842Z,0
2023-11-12T03:35:15.164Z,0
2023-11-12T03:36:23.908Z,0
2023-11-12T03:37:32.552Z,0
2023-11-12T03:38:33.592Z,0
2023-11-12T03:39:38.470Z,0
2023-11-12T03:40:39.437Z,0
2023-11-12T03:41:44.285Z,0
2023-11-12T03:42:56.881Z,0
2023-11-12T03:44:01.769Z,0
2023-11-12T03:45:06.614Z,0
2023-11-12T03:46:07.584Z,0
2023-11-12T03:47:14.856Z,0
2023-11-12T03:48:16.458Z,0
2023-11-12T03:49:25.173Z,0
2023-11-12T03:50:37.674Z,0
2023-11-12T03:51:42.537Z,0
2023-11-12T03:52:47.407Z,0
2023-11-12T03:53:52.195Z,0
2023-11-12T03:54:57.172Z,0
2023-11-12T03:56:01.909Z,0
2023-11-12T03:57:21.440Z,0
2023-11-12T03:58:30.082Z,0
2023-11-12T03:59:35.154Z,0
2023-11-12T04:00:39.838Z,0
2023-11-12T04:01:40.749Z,0
2023-11-12T04:02:49.555Z,0
2023-11-12T04:03:54.456Z,0
2023-11-12T04:04:59.273Z,0
2023-11-12T04:06:04.070Z,0
2023-11-12T04:07:12.651Z,0
2023-11-12T04:08:17.527Z,0
2023-11-12T04:09:18.582Z,0
2023-11-12T04:10:19.575Z,0
2023-11-12T04:11:20.552Z,0
2023-11-12T04:12:25.547Z,0
2023-11-12T04:13:38.117Z,0
2023-11-12T04:14:42.782Z,0
2023-11-12T04:15:59.207Z,0
2023-11-12T04:17:11.789Z,0
2023-11-12T04:18:24.559Z,0
2023-11-12T04:19:29.207Z,0
2023-11-12T04:20:37.899Z,0
2023-11-12T04:21:38.895Z,0
2023-11-12T04:22:39.817Z,0
2023-11-12T04:23:51.548Z,0
2023-11-12T04:25:04.084Z,0
2023-11-12T04:26:12.814Z,0
2023-11-12T04:27:17.699Z,0
2023-11-12T04:28:24.522Z,0
2023-11-12T04:29:40.970Z,0
2023-11-12T04:30:42.024Z,0
2023-11-12T04:31:50.674Z,0
2023-11-12T04:32:51.680Z,0
2023-11-12T04:34:04.135Z,0
2023-11-12T04:35:09.031Z,0
2023-11-12T04:36:13.882Z,0
2023-11-12T04:37:22.578Z,0
2023-11-12T04:38:27.461Z,0
2023-11-12T04:39:32.334Z,0
2023-11-12T04:40:41.275Z,0
2023-11-12T04:41:45.817Z,0
2023-11-12T04:42:46.922Z,0
2023-11-12T04:43:51.682Z,0
2023-11-12T04:45:03.422Z,0
2023-11-12T04:46:08.375Z,0
2023-11-12T04:47:13.094Z,0
2023-11-12T04:48:18.059Z,0
2023-11-12T04:49:18.965Z,0
2023-11-12T04:50:35.685Z,0
2023-11-12T04:51:49.971Z,0
2023-11-12T04:53:02.430Z,0
2023-11-12T04:54:11.269Z,0
2023-11-12T04:55:19.932Z,0
2023-11-12T04:56:28.886Z,0
2023-11-12T04:57:49.878Z,0
2023-11-12T04:58:54.654Z,0
2023-11-12T05:00:07.334Z,0
2023-11-12T05:01:16.065Z,0
2023-11-12T05:02:36.214Z,0
2023-11-12T05:04:11.578Z,0
2023-11-12T05:05:23.828Z,0
2023-11-12T05:06:28.710Z,0
2023-11-12T05:07:33.592Z,0.12
2023-11-12T05:08:38.315Z,0
2023-11-12T05:09:43.193Z,0
2023-11-12T05:10:48.014Z,0.18
2023-11-12T05:12:02.626Z,0.07
2023-11-12T05:13:03.738Z,0.28
2023-11-12T05:14:08.396Z,0.25
2023-11-12T05:15:13.333Z,0.39
2023-11-12T05:16:22.094Z,0.42
2023-11-12T05:17:22.930Z,0.33
2023-11-12T05:18:35.701Z,0.63
2023-11-12T05:19:44.174Z,0.23
2023-11-12T05:20:54.911Z,0.37
2023-11-12T05:22:07.487Z,0.3
2023-11-12T05:23:08.443Z,0.35
2023-11-12T05:24:25.039Z,0.74
2023-11-12T05:25:49.026Z,0.55
2023-11-12T05:27:01.555Z,0.11
2023-11-12T05:28:17.882Z,0.19
2023-11-12T05:29:26.913Z,0.35
2023-11-12T05:30:40.242Z,0.15
2023-11-12T05:31:48.879Z,0
2023-11-12T05:32:53.735Z,0
2023-11-12T05:34:10.139Z,0
2023-11-12T05:35:22.830Z,0.33
2023-11-12T05:36:35.266Z,0.19
2023-11-12T05:38:02.351Z,0.49
2023-11-12T05:39:22.722Z,0.13
2023-11-12T05:40:31.317Z,0.1
2023-11-12T05:41:37.165Z,0.63
2023-11-12T05:42:42.068Z,0
2023-11-12T05:43:58.385Z,0
2023-11-12T05:45:08.164Z,0.2
2023-11-12T05:46:21.023Z,0.31
2023-11-12T05:47:30.406Z,0.16
2023-11-12T05:48:50.632Z,0.63
2023-11-12T05:50:17.109Z,0.36
2023-11-12T05:51:30.338Z,0.25
2023-11-12T05:52:42.846Z,0.31
2023-11-12T05:53:47.684Z,0.05
2023-11-12T05:54:56.444Z,0.16
2023-11-12T05:56:18.946Z,0.62
2023-11-12T05:57:41.920Z,0.43
2023-11-12T05:59:03.221Z,0.23
2023-11-12T06:00:19.883Z,0.69
2023-11-12T06:01:37.004Z,0.89
2023-11-12T06:02:57.405Z,0.6
2023-11-12T06:04:13.872Z,0.52
2023-11-12T06:05:32.042Z,0.43
2023-11-12T06:06:40.870Z,0.32
2023-11-12T06:07:57.214Z,0.14
2023-11-12T06:09:17.392Z,0.58
2023-11-12T06:10:37.633Z,0.36
2023-11-12T06:11:57.889Z,0.84
2023-11-12T06:13:14.261Z,0.86
2023-11-12T06:14:31.881Z,1.22
2023-11-12T06:15:48.165Z,0.84
2023-11-12T06:17:00.950Z,0.59
2023-11-12T06:18:17.133Z,1.01
2023-11-12T06:19:33.526Z,0.86
2023-11-12T06:20:56.924Z,1.06
2023-11-12T06:22:22.002Z,1.11
2023-11-12T06:23:45.956Z,0.82
2023-11-12T06:25:06.189Z,0.74
2023-11-12T06:26:23.033Z,0.6
2023-11-12T06:27:37.083Z,0.48
2023-11-12T06:28:56.448Z,0.79
2023-11-12T06:30:08.959Z,0.7
2023-11-12T06:31:13.790Z,0.45
2023-11-12T06:32:30.300Z,0.54
2023-11-12T06:33:39.048Z,0.93
2023-11-12T06:34:51.410Z,0.83
2023-11-12T06:36:00.203Z,0.91
2023-11-12T06:37:12.761Z,0.69
2023-11-12T06:38:34.347Z,1.53
2023-11-12T06:39:58.197Z,1.19
2023-11-12T06:41:15.606Z,1.8
2023-11-12T06:42:34.118Z,1.71
2023-11-12T06:43:54.226Z,1.29
2023-11-12T06:45:20.348Z,1.13
2023-11-12T06:46:42.054Z,1.63
2023-11-12T06:48:04.086Z,1.27
2023-11-12T06:49:20.994Z,1.87
2023-11-12T06:50:38.039Z,1.44
2023-11-12T06:51:55.278Z,1.4
2023-11-12T06:53:15.519Z,1.46
2023-11-12T06:54:39.540Z,1.43
2023-11-12T06:55:55.922Z,1.4
2023-11-12T06:57:22.417Z,0.57
2023-11-12T06:58:39.563Z,0.45
2023-11-12T07:00:03.505Z,0.94
2023-11-12T07:01:31.438Z,1.06
2023-11-12T07:02:57.761Z,1.13
2023-11-12T07:04:18.175Z,1.81
2023-11-12T07:05:37.322Z,1.37
2023-11-12T07:07:00.988Z,1.12
2023-11-12T07:08:19.841Z,0.48
2023-11-12T07:09:41.214Z,0.93
2023-11-12T07:10:57.440Z,0.96
2023-11-12T07:12:21.941Z,1.19
2023-11-12T07:13:40.992Z,1.14
2023-11-12T07:14:53.662Z,1.19
2023-11-12T07:16:13.859Z,0.98
2023-11-12T07:17:37.846Z,0.89
2023-11-12T07:18:45.673Z,0.82
2023-11-12T07:20:09.866Z,0.86
2023-11-12T07:21:34.984Z,0.55
2023-11-12T07:22:51.390Z,0.73
2023-11-12T07:24:08.772Z,0.87
2023-11-12T07:25:29.281Z,0.65
2023-11-12T07:26:49.627Z,0.63
2023-11-12T07:28:13.373Z,0.52
2023-11-12T07:29:25.954Z,1.11
2023-11-12T07:30:50.211Z,1.07
2023-11-12T07:32:14.225Z,0.7
2023-11-12T07:33:38.336Z,0.92
2023-11-12T07:35:02.526Z,0.74
2023-11-12T07:36:26.450Z,0.9
2023-11-12T07:37:46.837Z,0.63
2023-11-12T07:39:11.898Z,0.85
2023-11-12T07:40:34.130Z,0.77
2023-11-12T07:41:50.565Z,0.88
2023-11-12T07:43:15.632Z,1.08
2023-11-12T07:44:40.715Z,0.81
2023-11-12T07:46:05.992Z,0.3
2023-11-12T07:47:31.009Z,0.87
2023-11-12T07:48:57.990Z,0.86
2023-11-12T07:50:24.121Z,0.5
2023-11-12T07:51:49.318Z,1.05
2023-11-12T07:53:09.642Z,0.8
2023-11-12T07:54:29.810Z,0.82
2023-11-12T07:55:49.995Z,0.42
2023-11-12T07:57:14.195Z,0.55
2023-11-12T07:58:38.174Z,0.97
2023-11-12T08:00:02.476Z,1.01
2023-11-12T08:01:14.895Z,1.65
2023-11-12T08:02:38.995Z,1.28
2023-11-12T08:04:03.721Z,0.59
2023-11-12T08:05:24.710Z,0.84
2023-11-12T08:06:45.697Z,1.24
2023-11-12T08:08:05.951Z,1.52
2023-11-12T08:09:31.107Z,1.04
2023-11-12T08:10:47.336Z,0.83
2023-11-12T08:12:07.673Z,1.1
2023-11-12T08:13:28.021Z,0.59
2023-11-12T08:14:54.010Z,0.92
2023-11-12T08:16:16.174Z,0.74
2023-11-12T08:17:41.401Z,0.38
2023-11-12T08:19:06.562Z,0
2023-11-12T08:20:23.248Z,0.48
2023-11-12T08:21:44.465Z,0.8
2023-11-12T08:23:11.199Z,0.57
2023-11-12T08:24:35.393Z,0.31
2023-11-12T08:26:02.974Z,0.78
2023-11-12T08:27:18.104Z,0.98
2023-11-12T08:28:41.865Z,0.31
2023-11-12T08:30:03.270Z,0.12
2023-11-12T08:31:23.603Z,0.21
2023-11-12T08:32:42.079Z,0.4
2023-11-12T08:33:58.244Z,1.52
2023-11-12T08:35:14.714Z,1.14
2023-11-12T08:36:19.728Z,0.34
2023-11-12T08:37:36.071Z,0.21
2023-11-12T08:38:52.337Z,0.26
2023-11-12T08:40:01.137Z,0.38
2023-11-12T08:41:21.370Z,0.43
2023-11-12T08:42:41.613Z,0.3
2023-11-12T08:44:08.592Z,0.16
2023-11-12T08:45:21.378Z,0.14
2023-11-12T08:46:42.666Z,0.29
2023-11-12T08:48:07.509Z,0.15
2023-11-12T08:49:31.643Z,0.5
2023-11-12T08:50:58.797Z,0.43
2023-11-12T14:33:09.608Z,0
2023-11-12T14:34:36.781Z,0.29
2023-11-12T14:36:03.987Z,0.11
2023-11-12T14:37:29.795Z,0.14
2023-11-12T14:38:55.010Z,0.18
2023-11-12T14:40:21.282Z,0.09
2023-11-12T14:41:38.460Z,0
2023-11-12T14:43:02.623Z,0.13
2023-11-12T14:44:26.662Z,0.04
2023-11-12T14:45:52.807Z,0.07
2023-11-12T14:47:16.933Z,0
2023-11-12T14:48:41.049Z,0
2023-11-12T16:26:42.422Z,0.98
2023-11-12T16:28:06.472Z,0.65
2023-11-12T16:29:30.595Z,0.75
2023-11-12T16:30:54.704Z,0.11
2023-11-12T16:32:19.181Z,0.49
2023-11-12T16:33:43.881Z,0.57
2023-11-12T16:35:07.860Z,0.5
2023-11-12T16:36:12.653Z,0.56
2023-11-12T16:37:39.907Z,0.49
2023-11-12T16:39:07.008Z,0.7
2023-11-12T16:40:32.026Z,0.38
2023-11-12T16:41:57.148Z,0.34
2023-11-12T16:43:21.442Z,0.46
2023-11-12T16:44:46.520Z,0.32
2023-11-12T16:46:11.772Z,0.55
2023-11-12T16:47:37.673Z,0.67
2023-11-12T16:48:54.042Z,0.65
2023-11-12T16:50:18.028Z,0.56
2023-11-12T16:51:42.210Z,0.57
2023-11-12T16:53:02.398Z,0.85
2023-11-12T16:54:26.572Z,0.72
2023-11-12T16:55:50.771Z,0.54
2023-11-12T16:57:14.756Z,0.37
2023-11-12T16:58:39.284Z,0.35
2023-11-12T17:00:04.000Z,0.3
2023-11-12T17:01:28.076Z,0.35
2023-11-12T17:02:54.290Z,0.42
2023-11-12T17:04:03.101Z,0.46
2023-11-12T17:05:31.935Z,0.69
2023-11-12T17:06:48.483Z,0.16
2023-11-12T17:08:09.167Z,0.37
2023-11-12T17:09:34.766Z,0.7
2023-11-12T17:10:58.974Z,0.46
2023-11-12T17:12:25.541Z,0.41
2023-11-12T17:13:49.109Z,0.31
2023-11-12T17:15:13.636Z,0.19
2023-11-12T17:16:39.406Z,0.3
2023-11-12T17:18:03.484Z,0.38
2023-11-12T17:19:27.478Z,0.2
2023-11-12T17:20:54.428Z,0.28
2023-11-12T17:22:18.869Z,0.12
2023-11-12T17:23:43.782Z,0.15
2023-11-12T17:25:07.989Z,0.11
2023-11-12T17:26:30.308Z,0.26
2023-11-12T17:27:57.269Z,0.27
2023-11-12T17:29:22.482Z,0.08
2023-11-12T17:30:35.050Z,0
2023-11-12T17:31:55.119Z,0.1
2023-11-12T17:33:15.416Z,0.19
2023-11-12T17:34:40.551Z,0.08
2023-11-12T17:36:02.924Z,0.14
2023-11-12T17:37:26.972Z,0.32
2023-11-12T17:38:51.158Z,0.32
2023-11-12T17:40:15.150Z,0.38
2023-11-12T17:41:41.200Z,0.28
2023-11-12T17:43:05.487Z,0.15
2023-11-12T17:44:29.423Z,0.23
2023-11-12T17:45:53.705Z,0.14
2023-11-12T17:47:17.712Z,0.41
2023-11-12T17:48:23.050Z,0.41
2023-11-12T17:49:47.762Z,0.29
2023-11-12T17:51:11.791Z,0.18
2023-11-12T17:52:35.890Z,0.3
2023-11-12T17:53:59.860Z,0.37
2023-11-12T17:55:24.086Z,0.55
2023-11-12T17:56:48.115Z,0.51
2023-11-12T17:58:12.264Z,0.2
2023-11-12T17:59:21.227Z,0.45
2023-11-12T18:00:48.807Z,0.45
2023-11-12T18:02:12.554Z,0.39
2023-11-12T18:03:37.466Z,0.28
2023-11-12T18:05:01.553Z,0.38
2023-11-12T18:06:27.604Z,0.55
2023-11-12T18:07:51.710Z,0.76
2023-11-12T18:08:57.472Z,0.55
2023-11-12T18:10:17.621Z,0.55
2023-11-12T18:11:41.865Z,0.4
2023-11-12T18:13:06.126Z,0.45
2023-11-12T18:14:22.518Z,0.38
2023-11-12T18:15:46.402Z,0.25
2023-11-12T18:17:10.497Z,0.32
2023-11-12T18:18:23.194Z,0.07
2023-11-12T18:19:47.188Z,0.11
2023-11-12T18:21:11.297Z,0.29
2023-11-12T18:22:35.377Z,0.31
2023-11-12T18:23:51.766Z,0.31
2023-11-12T18:25:15.968Z,0.23
2023-11-12T18:26:39.962Z,0.15
2023-11-12T18:28:04.076Z,0.21
2023-11-12T18:29:28.418Z,0.34
2023-11-12T18:30:52.508Z,0.43
2023-11-12T18:32:16.492Z,0.31
2023-11-12T18:33:38.239Z,0.28
2023-11-12T18:35:05.060Z,0.23
2023-11-12T18:36:29.088Z,0.56
2023-11-12T18:37:53.103Z,0.34
2023-11-12T18:39:17.381Z,0.28
2023-11-12T18:40:41.340Z,0.61
2023-11-12T18:42:05.502Z,0.19
2023-11-12T18:43:29.539Z,0.27
2023-11-12T18:44:53.612Z,0.32
2023-11-12T18:46:17.893Z,0.45
2023-11-12T18:47:23.041Z,0.38
2023-11-12T18:48:53.840Z,0.65
2023-11-12T18:50:19.860Z,0.36
2023-11-12T18:51:43.945Z,0.63
2023-11-12T18:53:08.991Z,0.36
2023-11-12T18:54:34.151Z,0.3
2023-11-12T18:55:58.307Z,0.53
2023-11-12T18:57:23.357Z,0.39
2023-11-12T18:58:40.496Z,0.31
2023-11-12T19:00:05.001Z,0.44
2023-11-12T19:01:29.076Z,0.38
2023-11-12T19:02:53.394Z,0.29
2023-11-12T19:04:20.264Z,0.43
2023-11-12T19:05:42.484Z,0.74
2023-11-12T19:07:06.627Z,0.75
2023-11-12T19:08:30.796Z,0.86
2023-11-12T19:09:57.787Z,0.59
2023-11-12T19:11:37.014Z,0.46
2023-11-12T19:12:45.725Z,0.49
2023-11-12T19:14:09.679Z,0.48
2023-11-12T19:15:34.796Z,0.35
2023-11-12T19:17:01.304Z,0.34
2023-11-12T19:18:26.021Z,0.63
2023-11-12T19:19:48.192Z,0.33
2023-11-12T19:21:04.715Z,0.82
2023-11-12T19:22:28.933Z,0.8
2023-11-12T19:23:53.021Z,0.43
2023-11-12T19:25:17.031Z,0.63
2023-11-12T19:26:40.982Z,0.23
2023-11-12T19:28:06.567Z,0.39
2023-11-12T19:29:29.351Z,0.61
2023-11-12T19:30:53.697Z,0.74
2023-11-12T19:32:17.523Z,0.78
2023-11-12T19:33:41.807Z,0.36
2023-11-12T19:34:57.922Z,0.39
2023-11-12T19:36:22.167Z,1.12
2023-11-12T19:37:46.215Z,0.7
2023-11-12T19:39:10.467Z,0.42
2023-11-12T19:40:34.483Z,0.86
2023-11-12T19:41:58.680Z,0.56
2023-11-12T19:43:22.761Z,0.34
2023-11-12T19:44:46.683Z,0.84
2023-11-12T19:46:10.962Z,0.65
2023-11-12T19:47:34.951Z,0.36
2023-11-12T19:49:00.198Z,0.68
2023-11-12T19:50:24.569Z,0.58
2023-11-12T19:51:49.338Z,0.71
2023-11-12T19:53:13.363Z,0.66
2023-11-12T19:54:39.411Z,0.51
2023-11-12T19:56:04.773Z,0.46
2023-11-12T19:57:32.566Z,0.49
2023-11-12T19:58:58.076Z,0.69
2023-11-12T20:00:21.138Z,0.89
2023-11-12T20:01:46.190Z,1.12
2023-11-12T20:03:10.155Z,0.6
2023-11-12T20:04:34.231Z,0.31
2023-11-12T20:06:01.222Z,0.46
2023-11-12T20:07:24.648Z,0.91
2023-11-12T20:08:49.644Z,1.23
2023-11-12T20:10:14.725Z,1.07
2023-11-12T20:11:38.897Z,1.48
2023-11-12T20:13:03.778Z,1.26
2023-11-12T20:14:28.261Z,0.81
2023-11-12T20:15:53.128Z,0.39
2023-11-12T20:17:15.911Z,0.76
2023-11-12T20:18:41.373Z,0.87
2023-11-12T20:20:06.496Z,1.62
2023-11-12T20:21:31.618Z,1.1
2023-11-12T20:22:55.710Z,0.57
2023-11-12T20:24:21.020Z,0.75
2023-11-12T20:25:45.770Z,0.72
2023-11-12T20:26:51.103Z,0.84
2023-11-12T20:28:22.107Z,0.92
2023-11-12T20:29:27.125Z,1.34
2023-11-12T20:30:51.797Z,1.07
2023-11-12T20:32:15.964Z,0.61
2023-11-12T20:33:40.073Z,1.14
2023-11-12T20:35:05.302Z,1.21
2023-11-12T20:36:32.235Z,0.55
2023-11-12T20:37:58.245Z,0.61
2023-11-12T20:39:23.957Z,0.63
2023-11-12T20:40:48.576Z,0.67
2023-11-12T20:42:12.797Z,0.57
2023-11-12T20:43:37.729Z,1.18
2023-11-12T20:45:02.012Z,0.47
2023-11-12T20:46:27.185Z,0.66
2023-11-12T20:47:52.317Z,0.6
2023-11-12T20:49:16.234Z,0.41
2023-11-12T20:50:40.903Z,0.23
2023-11-12T20:52:05.590Z,0.6
2023-11-12T20:53:32.413Z,0.76
2023-11-12T20:54:58.689Z,1.1
2023-11-12T20:56:11.917Z,1.18
2023-11-12T20:57:36.357Z,0.53
2023-11-12T20:59:01.387Z,0.89
2023-11-12T21:00:25.703Z,0.5
2023-11-12T21:01:50.736Z,0.66
2023-11-12T21:03:14.761Z,1.14
2023-11-12T21:04:20.320Z,0.96
2023-11-12T21:05:50.673Z,0.84
2023-11-12T21:07:16.972Z,0.75
2023-11-12T21:08:41.975Z,0.41
2023-11-12T21:10:06.999Z,0.83
2023-11-12T21:11:20.064Z,0.34
2023-11-12T21:12:33.462Z,0.23
2023-11-12T21:13:42.873Z,0.69
2023-11-12T21:15:06.844Z,0.76
2023-11-12T21:16:23.937Z,0.68
2023-11-12T21:17:49.308Z,0.77
2023-11-12T21:18:58.797Z,1.59
2023-11-12T21:20:26.270Z,0.89
2023-11-12T21:21:51.900Z,1.45
2023-11-12T21:23:16.700Z,0.77
2023-11-12T21:24:41.504Z,0.79
2023-11-12T21:26:05.572Z,1.06
2023-11-12T21:27:29.801Z,0.32
2023-11-12T21:28:54.789Z,0.65
2023-11-12T21:30:03.518Z,0.88
2023-11-12T21:31:27.653Z,0.59
2023-11-12T21:32:54.716Z,0.62
2023-11-12T21:34:21.105Z,0.96
2023-11-12T21:35:46.012Z,0.88
2023-11-12T21:37:10.025Z,0.39
2023-11-12T21:38:35.344Z,0.47
2023-11-12T21:39:59.203Z,0.88
2023-11-12T21:41:25.513Z,0.45
2023-11-12T21:42:49.457Z,0.39
2023-11-12T21:44:13.605Z,0.47
2023-11-12T21:45:39.653Z,0.46
2023-11-12T21:47:04.065Z,0.76
2023-11-12T21:48:28.891Z,0.57
2023-11-12T21:49:54.960Z,0.46
2023-11-12T21:51:19.125Z,0.61
2023-11-12T21:52:43.281Z,0.86
2023-11-12T21:53:55.960Z,0.49
2023-11-12T21:55:21.402Z,0.31
2023-11-12T21:56:45.919Z,0.22
2023-11-12T21:58:10.088Z,0.43
2023-11-12T21:59:35.198Z,0.64
2023-11-12T22:01:00.319Z,0.54
2023-11-12T22:02:05.731Z,0.72
2023-11-12T22:03:30.234Z,0.22
2023-11-12T22:04:54.243Z,0.5
2023-11-12T22:06:18.378Z,0.3
2023-11-12T22:07:44.719Z,0.18
2023-11-12T22:09:11.573Z,0.32
2023-11-12T22:10:20.819Z,0.84
2023-11-12T22:11:48.386Z,0.83
2023-11-12T22:13:13.664Z,0.81
2023-11-12T22:14:38.641Z,0.83
2023-11-12T22:16:04.024Z,0.94
2023-11-12T22:17:28.780Z,0.34
2023-11-12T22:18:52.118Z,0.51
2023-11-12T22:20:19.423Z,0.63
2023-11-12T22:21:44.514Z,1.09
2023-11-12T22:23:08.489Z,0.9
2023-11-12T22:24:13.897Z,0.87
2023-11-12T22:25:41.431Z,0.68
2023-11-12T22:26:46.888Z,0.74
2023-11-12T22:28:14.312Z,0.45
2023-11-12T22:29:41.418Z,0.63
2023-11-12T22:30:54.225Z,0.6
2023-11-12T22:32:18.992Z,0.6
2023-11-12T22:33:35.849Z,0.53
2023-11-12T22:35:00.747Z,0.35
2023-11-12T22:36:24.823Z,0.38
2023-11-12T22:37:48.958Z,0.52
2023-11-12T22:39:12.844Z,0.56
2023-11-12T22:40:25.418Z,0
2023-11-12T22:41:47.634Z,0
2023-11-12T22:43:11.779Z,0.28
2023-11-12T22:44:35.932Z,1.11
2023-11-12T22:46:00.262Z,1.02
2023-11-12T22:47:05.314Z,0.72
2023-11-12T22:48:29.662Z,0.99
2023-11-12T22:49:54.182Z,1.04
2023-11-12T22:51:06.746Z,0.63
2023-11-12T22:52:16.124Z,0.46
2023-11-12T22:53:41.515Z,0.44
2023-11-12T22:55:05.708Z,0.38
2023-11-12T22:56:29.764Z,0.4
2023-11-12T22:57:42.399Z,0.5
2023-11-12T22:58:58.855Z,0.51
2023-11-12T23:00:33.697Z,0.6
2023-11-12T23:01:47.094Z,0.35
2023-11-12T23:03:11.303Z,0.17
2023-11-12T23:04:35.224Z,0.6
2023-11-12T23:05:59.207Z,0.31
2023-11-12T23:07:23.376Z,0.3
2023-11-12T23:08:47.478Z,0.28
2023-11-12T23:10:12.581Z,0.28
2023-11-12T23:11:36.685Z,0.25
2023-11-12T23:13:02.040Z,0.32
2023-11-12T23:14:26.911Z,0.87
2023-11-12T23:15:47.243Z,0.46
2023-11-12T23:17:13.363Z,0.43
2023-11-12T23:18:37.269Z,0.38
2023-11-12T23:20:01.757Z,0.61
2023-11-12T23:21:27.493Z,0.6
2023-11-12T23:22:54.676Z,0.65
2023-11-12T23:24:07.300Z,0.43
2023-11-12T23:25:23.838Z,0.53
2023-11-12T23:26:49.612Z,0.46
2023-11-12T23:27:58.511Z,0.25
2023-11-12T23:29:25.425Z,0.63
2023-11-12T23:30:49.680Z,0.64
2023-11-12T23:32:10.318Z,0.47
2023-11-12T23:33:35.947Z,0.92
2023-11-12T23:34:59.998Z,0.27
2023-11-12T23:36:24.256Z,0.76
2023-11-12T23:37:48.301Z,0.49
2023-11-12T23:39:12.322Z,0.24
2023-11-12T23:40:37.514Z,0.57
2023-11-12T23:42:01.550Z,0.35
2023-11-12T23:43:10.685Z,0.59
2023-11-12T23:44:35.294Z,0.41
2023-11-12T23:45:59.516Z,0.42
2023-11-12T23:47:04.370Z,0.45
2023-11-12T23:48:16.841Z,0.22
2023-11-12T23:49:25.711Z,0.48
2023-11-12T23:50:51.625Z,0.79
2023-11-12T23:52:15.893Z,0.9
2023-11-12T23:53:40.848Z,0.69
2023-11-12T23:55:05.186Z,0.69
2023-11-12T23:56:09.805Z,0.35
2023-11-12T23:57:26.186Z,0.89
2023-11-12T23:58:53.273Z,0.38
2023-11-12T23:59:58.511Z,0.48
